Terminal Aerodrome Forecast
Issued by NWS

Home | Current Version | Previous Version | Text Only | Print | Product List | Glossary On
Versions: 1 2 3 4 5 6 7 8 9 10 11 12 13 14 15 16 17 18
906
FTUS46 KSEW 051628 AAB
TAFBFI
TAF AMD
KBFI 051628Z 0516/0612 18009KT 5SM -SHRA BR SCT006 OVC015
      TEMPO 0516/0519 1SM -SN BR BKN006 OVC015
     FM051900 16008KT P6SM BKN025 OVC035
      TEMPO 0519/0523 6SM -SHRA
     FM060000 16005KT P6SM SCT020 OVC035
      TEMPO 0600/0604 5SM -SN BKN013 OVC030
     FM060500 03008KT P6SM SCT030 BKN080=

USA.gov is the U.S. government's official web portal to all federal, state and local government web resources and services.